sensor_id;sensor_type;location;lat;lon;timestamp;pressure;altitude;pressure_sealevel;temperature;humidity
79791;BME280;69278;52.220;5.172;2023-04-15T00:01:48;100904.28;;;10.30;52.99
79791;BME280;69278;52.220;5.172;2023-04-15T00:04:15;100916.53;;;10.41;52.77
79791;BME280;69278;52.220;5.172;2023-04-15T00:06:41;100917.47;;;10.40;52.71
79791;BME280;69278;52.220;5.172;2023-04-15T00:09:08;100900.81;;;10.30;52.69
79791;BME280;69278;52.220;5.172;2023-04-15T00:11:34;100901.66;;;10.30;52.66
79791;BME280;69278;52.220;5.172;2023-04-15T00:14:01;100910.63;;;10.28;52.93
79791;BME280;69278;52.220;5.172;2023-04-15T00:16:27;100904.69;;;10.26;53.21
79791;BME280;69278;52.220;5.172;2023-04-15T00:18:54;100902.31;;;10.23;53.16
79791;BME280;69278;52.220;5.172;2023-04-15T00:21:20;100895.91;;;10.16;53.25
79791;BME280;69278;52.220;5.172;2023-04-15T00:23:47;100891.34;;;10.18;53.06
79791;BME280;69278;52.220;5.172;2023-04-15T00:26:17;100902.03;;;10.26;52.96
79791;BME280;69278;52.220;5.172;2023-04-15T00:28:45;100905.91;;;10.22;53.22
79791;BME280;69278;52.220;5.172;2023-04-15T00:31:12;100902.72;;;10.18;53.52
79791;BME280;69278;52.220;5.172;2023-04-15T00:33:38;100899.53;;;10.15;53.70
79791;BME280;69278;52.220;5.172;2023-04-15T00:36:06;100907.00;;;10.19;53.84
79791;BME280;69278;52.220;5.172;2023-04-15T00:38:32;100900.94;;;10.08;53.58
79791;BME280;69278;52.220;5.172;2023-04-15T00:40:59;100871.94;;;9.88;53.85
79791;BME280;69278;52.220;5.172;2023-04-15T00:43:25;100910.09;;;10.03;53.98
79791;BME280;69278;52.220;5.172;2023-04-15T00:45:52;100910.34;;;10.00;54.09
79791;BME280;69278;52.220;5.172;2023-04-15T00:48:20;100894.25;;;9.94;54.12
79791;BME280;69278;52.220;5.172;2023-04-15T00:50:46;100902.28;;;9.92;54.53
79791;BME280;69278;52.220;5.172;2023-04-15T00:53:12;100904.47;;;9.87;54.57
79791;BME280;69278;52.220;5.172;2023-04-15T00:55:39;100905.88;;;9.91;54.71
79791;BME280;69278;52.220;5.172;2023-04-15T00:58:05;100905.88;;;9.91;54.75
79791;BME280;69278;52.220;5.172;2023-04-15T01:00:32;100788.22;;;9.12;54.72
79791;BME280;69278;52.220;5.172;2023-04-15T01:02:59;100874.75;;;9.66;54.68
79791;BME280;69278;52.220;5.172;2023-04-15T01:05:27;100912.81;;;9.92;54.93
79791;BME280;69278;52.220;5.172;2023-04-15T01:07:54;100918.75;;;9.94;54.87
79791;BME280;69278;52.220;5.172;2023-04-15T01:10:20;100900.41;;;9.83;54.88
79791;BME280;69278;52.220;5.172;2023-04-15T01:12:47;100916.28;;;9.93;55.02
79791;BME280;69278;52.220;5.172;2023-04-15T01:15:14;100875.00;;;9.63;55.30
79791;BME280;69278;52.220;5.172;2023-04-15T01:17:41;100912.88;;;9.81;55.63
79791;BME280;69278;52.220;5.172;2023-04-15T01:20:08;100917.88;;;9.84;55.24
79791;BME280;69278;52.220;5.172;2023-04-15T01:22:37;100901.44;;;9.71;55.60
79791;BME280;69278;52.220;5.172;2023-04-15T01:25:17;100872.56;;;9.51;55.71
79791;BME280;69278;52.220;5.172;2023-04-15T01:27:44;100919.16;;;9.69;55.91
79791;BME280;69278;52.220;5.172;2023-04-15T01:30:10;100905.63;;;9.53;56.47
79791;BME280;69278;52.220;5.172;2023-04-15T01:32:37;100908.41;;;9.52;56.62
79791;BME280;69278;52.220;5.172;2023-04-15T01:35:04;100911.38;;;9.47;57.05
79791;BME280;69278;52.220;5.172;2023-04-15T01:37:31;100921.16;;;9.56;57.21
79791;BME280;69278;52.220;5.172;2023-04-15T01:39:57;100908.06;;;9.45;57.28
79791;BME280;69278;52.220;5.172;2023-04-15T01:42:24;100933.59;;;9.54;57.59
79791;BME280;69278;52.220;5.172;2023-04-15T01:44:50;100903.78;;;9.44;57.55
79791;BME280;69278;52.220;5.172;2023-04-15T01:47:17;100911.91;;;9.41;57.85
79791;BME280;69278;52.220;5.172;2023-04-15T01:49:43;100936.59;;;9.50;58.08
79791;BME280;69278;52.220;5.172;2023-04-15T01:52:10;100923.59;;;9.48;58.40
79791;BME280;69278;52.220;5.172;2023-04-15T01:54:36;100911.31;;;9.38;58.60
79791;BME280;69278;52.220;5.172;2023-04-15T01:57:03;100924.34;;;9.39;58.23
79791;BME280;69278;52.220;5.172;2023-04-15T01:59:30;100914.59;;;9.30;58.64
79791;BME280;69278;52.220;5.172;2023-04-15T02:01:57;100929.47;;;9.41;58.62
79791;BME280;69278;52.220;5.172;2023-04-15T02:04:24;100922.91;;;9.35;58.26
79791;BME280;69278;52.220;5.172;2023-04-15T02:06:50;100916.78;;;9.25;58.56
79791;BME280;69278;52.220;5.172;2023-04-15T02:09:17;100897.00;;;9.10;58.88
79791;BME280;69278;52.220;5.172;2023-04-15T02:11:45;100916.31;;;9.20;59.31
79791;BME280;69278;52.220;5.172;2023-04-15T02:14:11;100912.16;;;9.17;58.66
79791;BME280;69278;52.220;5.172;2023-04-15T02:16:37;100944.72;;;9.26;59.41
79791;BME280;69278;52.220;5.172;2023-04-15T02:19:04;100923.59;;;9.16;59.39
79791;BME280;69278;52.220;5.172;2023-04-15T02:21:30;100932.78;;;9.22;59.41
79791;BME280;69278;52.220;5.172;2023-04-15T02:23:57;100923.38;;;9.08;60.16
79791;BME280;69278;52.220;5.172;2023-04-15T02:26:23;100927.00;;;9.07;60.44
79791;BME280;69278;52.220;5.172;2023-04-15T02:28:50;100941.78;;;9.08;60.57
79791;BME280;69278;52.220;5.172;2023-04-15T02:31:17;100916.31;;;8.88;60.67
79791;BME280;69278;52.220;5.172;2023-04-15T02:33:44;100947.69;;;9.01;61.29
79791;BME280;69278;52.220;5.172;2023-04-15T02:36:10;100904.16;;;8.76;60.80
79791;BME280;69278;52.220;5.172;2023-04-15T02:38:37;100955.88;;;9.07;61.17
79791;BME280;69278;52.220;5.172;2023-04-15T02:41:06;100949.22;;;9.03;61.73
79791;BME280;69278;52.220;5.172;2023-04-15T02:43:33;100959.09;;;9.11;61.42
79791;BME280;69278;52.220;5.172;2023-04-15T02:46:00;100952.47;;;8.96;61.68
79791;BME280;69278;52.220;5.172;2023-04-15T02:48:26;100945.53;;;8.95;61.88
79791;BME280;69278;52.220;5.172;2023-04-15T02:51:09;100972.25;;;9.00;62.80
79791;BME280;69278;52.220;5.172;2023-04-15T02:53:36;100971.56;;;8.98;62.30
79791;BME280;69278;52.220;5.172;2023-04-15T02:56:02;100977.75;;;8.97;62.39
79791;BME280;69278;52.220;5.172;2023-04-15T02:58:29;100977.03;;;8.95;62.71
79791;BME280;69278;52.220;5.172;2023-04-15T03:00:55;100968.47;;;8.93;62.36
79791;BME280;69278;52.220;5.172;2023-04-15T03:03:22;100980.38;;;8.97;63.11
79791;BME280;69278;52.220;5.172;2023-04-15T03:05:49;100991.59;;;8.99;63.20
79791;BME280;69278;52.220;5.172;2023-04-15T03:08:15;100983.72;;;8.99;62.92
79791;BME280;69278;52.220;5.172;2023-04-15T03:10:42;100985.06;;;8.93;63.10
79791;BME280;69278;52.220;5.172;2023-04-15T03:13:08;100977.41;;;8.90;62.98
79791;BME280;69278;52.220;5.172;2023-04-15T03:15:35;100991.97;;;8.94;63.18
79791;BME280;69278;52.220;5.172;2023-04-15T03:18:01;100972.44;;;8.76;63.87
79791;BME280;69278;52.220;5.172;2023-04-15T03:20:28;100969.69;;;8.66;64.00
79791;BME280;69278;52.220;5.172;2023-04-15T03:22:54;100987.47;;;8.74;63.96
79791;BME280;69278;52.220;5.172;2023-04-15T03:25:21;100980.78;;;8.70;64.11
79791;BME280;69278;52.220;5.172;2023-04-15T03:27:47;100992.72;;;8.74;63.79
79791;BME280;69278;52.220;5.172;2023-04-15T03:30:14;100986.88;;;8.71;64.36
79791;BME280;69278;52.220;5.172;2023-04-15T03:32:40;101002.03;;;8.67;64.82
79791;BME280;69278;52.220;5.172;2023-04-15T03:35:07;101005.25;;;8.71;64.39
79791;BME280;69278;52.220;5.172;2023-04-15T03:37:34;101002.13;;;8.65;64.27
79791;BME280;69278;52.220;5.172;2023-04-15T03:40:01;100994.50;;;8.62;65.05
79791;BME280;69278;52.220;5.172;2023-04-15T03:42:27;100993.91;;;8.59;65.03
79791;BME280;69278;52.220;5.172;2023-04-15T03:44:54;101009.31;;;8.63;65.17
79791;BME280;69278;52.220;5.172;2023-04-15T03:47:20;100991.28;;;8.48;65.18
79791;BME280;69278;52.220;5.172;2023-04-15T03:49:46;101013.50;;;8.55;65.12
79791;BME280;69278;52.220;5.172;2023-04-15T03:52:13;101022.66;;;8.49;65.42
79791;BME280;69278;52.220;5.172;2023-04-15T03:54:39;101019.06;;;8.50;65.45
79791;BME280;69278;52.220;5.172;2023-04-15T03:57:06;101020.75;;;8.51;65.68
79791;BME280;69278;52.220;5.172;2023-04-15T03:59:32;101002.16;;;8.32;65.36
79791;BME280;69278;52.220;5.172;2023-04-15T04:01:59;101036.88;;;8.47;66.22
79791;BME280;69278;52.220;5.172;2023-04-15T04:04:25;101023.84;;;8.34;66.34
79791;BME280;69278;52.220;5.172;2023-04-15T04:06:52;101032.91;;;8.30;66.06
79791;BME280;69278;52.220;5.172;2023-04-15T04:09:18;101039.59;;;8.34;66.50
79791;BME280;69278;52.220;5.172;2023-04-15T04:11:45;101018.34;;;8.26;66.71
79791;BME280;69278;52.220;5.172;2023-04-15T04:14:11;101019.78;;;8.30;66.93
79791;BME280;69278;52.220;5.172;2023-04-15T04:16:38;101038.66;;;8.35;66.47
79791;BME280;69278;52.220;5.172;2023-04-15T04:19:04;101034.56;;;8.31;66.86
79791;BME280;69278;52.220;5.172;2023-04-15T04:21:32;101038.75;;;8.34;66.73
79791;BME280;69278;52.220;5.172;2023-04-15T04:23:59;101051.63;;;8.37;67.06
79791;BME280;69278;52.220;5.172;2023-04-15T04:26:25;101046.03;;;8.30;67.02
79791;BME280;69278;52.220;5.172;2023-04-15T04:28:52;101049.72;;;8.28;67.50
79791;BME280;69278;52.220;5.172;2023-04-15T04:31:18;101041.44;;;8.21;67.43
79791;BME280;69278;52.220;5.172;2023-04-15T04:33:45;101060.81;;;8.31;67.29
79791;BME280;69278;52.220;5.172;2023-04-15T04:36:11;101046.09;;;8.18;67.84
79791;BME280;69278;52.220;5.172;2023-04-15T04:38:38;101033.41;;;8.00;67.72
79791;BME280;69278;52.220;5.172;2023-04-15T04:41:04;101068.63;;;8.20;67.83
79791;BME280;69278;52.220;5.172;2023-04-15T04:43:31;101070.75;;;8.15;68.28
79791;BME280;69278;52.220;5.172;2023-04-15T04:45:57;101075.63;;;8.09;68.13
79791;BME280;69278;52.220;5.172;2023-04-15T04:48:24;101086.94;;;8.09;68.16
79791;BME280;69278;52.220;5.172;2023-04-15T04:50:51;101082.88;;;8.05;68.22
79791;BME280;69278;52.220;5.172;2023-04-15T04:53:17;101075.72;;;7.96;69.06
79791;BME280;69278;52.220;5.172;2023-04-15T04:55:44;101096.84;;;8.06;68.41
79791;BME280;69278;52.220;5.172;2023-04-15T04:58:10;101092.16;;;7.98;68.82
79791;BME280;69278;52.220;5.172;2023-04-15T05:00:39;101103.16;;;8.03;68.71
79791;BME280;69278;52.220;5.172;2023-04-15T05:03:05;101108.53;;;8.01;68.91
79791;BME280;69278;52.220;5.172;2023-04-15T05:05:32;101113.47;;;7.93;69.15
79791;BME280;69278;52.220;5.172;2023-04-15T05:08:00;101119.44;;;7.95;69.16
79791;BME280;69278;52.220;5.172;2023-04-15T05:10:27;101111.41;;;7.86;69.03
79791;BME280;69278;52.220;5.172;2023-04-15T05:12:53;101096.38;;;7.77;69.52
79791;BME280;69278;52.220;5.172;2023-04-15T05:15:20;101125.97;;;7.90;69.34
79791;BME280;69278;52.220;5.172;2023-04-15T05:17:46;101099.75;;;7.66;70.00
79791;BME280;69278;52.220;5.172;2023-04-15T05:20:13;101129.06;;;7.84;69.56
79791;BME280;69278;52.220;5.172;2023-04-15T05:22:39;101135.94;;;7.85;69.98
79791;BME280;69278;52.220;5.172;2023-04-15T05:25:06;101131.16;;;7.79;70.69
79791;BME280;69278;52.220;5.172;2023-04-15T05:27:33;101145.38;;;7.87;70.14
79791;BME280;69278;52.220;5.172;2023-04-15T05:30:00;101105.69;;;7.57;70.17
79791;BME280;69278;52.220;5.172;2023-04-15T05:32:27;101145.84;;;7.81;70.33
79791;BME280;69278;52.220;5.172;2023-04-15T05:34:53;101156.13;;;7.84;70.02
79791;BME280;69278;52.220;5.172;2023-04-15T05:37:20;101159.34;;;7.88;69.87
79791;BME280;69278;52.220;5.172;2023-04-15T05:39:47;101166.47;;;7.86;70.04
79791;BME280;69278;52.220;5.172;2023-04-15T05:42:14;101166.16;;;7.90;69.91
79791;BME280;69278;52.220;5.172;2023-04-15T05:44:40;101170.31;;;7.93;69.75
79791;BME280;69278;52.220;5.172;2023-04-15T05:47:07;101157.56;;;7.88;69.84
79791;BME280;69278;52.220;5.172;2023-04-15T05:49:34;101191.03;;;8.09;72.74
79791;BME280;69278;52.220;5.172;2023-04-15T05:52:02;101187.50;;;8.90;71.83
79791;BME280;69278;52.220;5.172;2023-04-15T05:54:28;101178.13;;;9.32;70.20
79791;BME280;69278;52.220;5.172;2023-04-15T05:56:55;101177.09;;;9.77;70.08
79791;BME280;69278;52.220;5.172;2023-04-15T05:59:22;101201.31;;;10.14;68.86
79791;BME280;69278;52.220;5.172;2023-04-15T06:01:49;101190.41;;;10.39;68.23
79791;BME280;69278;52.220;5.172;2023-04-15T06:04:17;101200.06;;;10.71;65.68
79791;BME280;69278;52.220;5.172;2023-04-15T06:06:44;101202.06;;;10.78;65.32
79791;BME280;69278;52.220;5.172;2023-04-15T06:09:10;101208.31;;;10.77;64.07
79791;BME280;69278;52.220;5.172;2023-04-15T06:11:36;101201.81;;;10.81;63.78
79791;BME280;69278;52.220;5.172;2023-04-15T06:14:03;101210.81;;;10.99;64.19
79791;BME280;69278;52.220;5.172;2023-04-15T06:16:29;101186.13;;;11.00;63.99
79791;BME280;69278;52.220;5.172;2023-04-15T06:18:56;101222.66;;;11.35;62.35
79791;BME280;69278;52.220;5.172;2023-04-15T06:21:22;101215.25;;;10.78;62.12
79791;BME280;69278;52.220;5.172;2023-04-15T06:23:49;101229.63;;;10.22;63.00
79791;BME280;69278;52.220;5.172;2023-04-15T06:26:15;101215.13;;;9.73;64.57
79791;BME280;69278;52.220;5.172;2023-04-15T06:28:42;101241.53;;;9.50;65.48
79791;BME280;69278;52.220;5.172;2023-04-15T06:31:08;101232.91;;;9.25;66.22
79791;BME280;69278;52.220;5.172;2023-04-15T06:33:35;101257.19;;;9.18;67.12
79791;BME280;69278;52.220;5.172;2023-04-15T06:36:02;101254.88;;;9.02;67.90
79791;BME280;69278;52.220;5.172;2023-04-15T06:38:28;101256.28;;;8.95;67.67
79791;BME280;69278;52.220;5.172;2023-04-15T06:40:55;101221.00;;;8.64;67.86
79791;BME280;69278;52.220;5.172;2023-04-15T06:43:21;101252.53;;;8.76;68.89
79791;BME280;69278;52.220;5.172;2023-04-15T06:45:47;101248.81;;;8.67;69.13
79791;BME280;69278;52.220;5.172;2023-04-15T06:48:14;101262.91;;;8.77;68.97
79791;BME280;69278;52.220;5.172;2023-04-15T06:50:41;101280.00;;;8.83;70.09
79791;BME280;69278;52.220;5.172;2023-04-15T06:53:07;101266.59;;;8.75;68.80
79791;BME280;69278;52.220;5.172;2023-04-15T06:55:34;101274.25;;;8.78;69.60
79791;BME280;69278;52.220;5.172;2023-04-15T06:58:00;101273.66;;;8.74;69.30
79791;BME280;69278;52.220;5.172;2023-04-15T07:00:27;101276.16;;;8.76;69.70
79791;BME280;69278;52.220;5.172;2023-04-15T07:02:54;101290.28;;;8.86;69.51
79791;BME280;69278;52.220;5.172;2023-04-15T07:05:21;101298.19;;;8.97;69.20
79791;BME280;69278;52.220;5.172;2023-04-15T07:07:47;101284.53;;;8.81;69.16
79791;BME280;69278;52.220;5.172;2023-04-15T07:10:14;101289.31;;;8.87;68.79
79791;BME280;69278;52.220;5.172;2023-04-15T07:12:41;101305.63;;;9.03;68.59
79791;BME280;69278;52.220;5.172;2023-04-15T07:15:07;101302.28;;;9.01;68.64
79791;BME280;69278;52.220;5.172;2023-04-15T07:17:34;101317.72;;;9.16;68.10
79791;BME280;69278;52.220;5.172;2023-04-15T07:20:01;101329.44;;;9.23;67.38
79791;BME280;69278;52.220;5.172;2023-04-15T07:22:27;101322.41;;;9.24;67.11
79791;BME280;69278;52.220;5.172;2023-04-15T07:24:54;101304.34;;;9.19;67.15
79791;BME280;69278;52.220;5.172;2023-04-15T07:27:20;101324.09;;;9.36;66.98
79791;BME280;69278;52.220;5.172;2023-04-15T07:29:47;101334.53;;;9.49;66.50
79791;BME280;69278;52.220;5.172;2023-04-15T07:32:14;101335.84;;;9.54;66.27
79791;BME280;69278;52.220;5.172;2023-04-15T07:34:40;101337.28;;;9.58;65.72
79791;BME280;69278;52.220;5.172;2023-04-15T07:37:07;101329.50;;;9.57;65.77
79791;BME280;69278;52.220;5.172;2023-04-15T07:39:33;101340.75;;;9.70;64.91
79791;BME280;69278;52.220;5.172;2023-04-15T07:42:00;101344.94;;;9.72;64.80
79791;BME280;69278;52.220;5.172;2023-04-15T07:44:27;101347.91;;;9.79;64.07
79791;BME280;69278;52.220;5.172;2023-04-15T07:46:55;101364.66;;;9.89;63.79
79791;BME280;69278;52.220;5.172;2023-04-15T07:49:21;101338.00;;;9.82;64.15
79791;BME280;69278;52.220;5.172;2023-04-15T07:51:48;101355.94;;;9.99;63.18
79791;BME280;69278;52.220;5.172;2023-04-15T07:54:15;101370.44;;;10.05;63.34
79791;BME280;69278;52.220;5.172;2023-04-15T07:56:42;101370.16;;;10.08;63.42
79791;BME280;69278;52.220;5.172;2023-04-15T07:59:08;101375.72;;;10.16;63.23
79791;BME280;69278;52.220;5.172;2023-04-15T08:01:35;101381.22;;;10.24;63.57
79791;BME280;69278;52.220;5.172;2023-04-15T08:04:02;101370.44;;;10.16;62.79
79791;BME280;69278;52.220;5.172;2023-04-15T08:06:29;101375.34;;;10.21;62.44
79791;BME280;69278;52.220;5.172;2023-04-15T08:08:56;101376.06;;;10.23;63.00
79791;BME280;69278;52.220;5.172;2023-04-15T08:11:22;101397.69;;;10.37;62.57
79791;BME280;69278;52.220;5.172;2023-04-15T08:13:51;101393.28;;;10.38;62.57
79791;BME280;69278;52.220;5.172;2023-04-15T08:16:21;101401.28;;;10.47;61.33
79791;BME280;69278;52.220;5.172;2023-04-15T08:18:50;101409.53;;;10.54;61.56
79791;BME280;69278;52.220;5.172;2023-04-15T08:21:17;101392.53;;;10.58;61.98
79791;BME280;69278;52.220;5.172;2023-04-15T08:23:46;101401.72;;;10.63;61.90
79791;BME280;69278;52.220;5.172;2023-04-15T08:26:12;101409.72;;;10.73;61.23
79791;BME280;69278;52.220;5.172;2023-04-15T08:28:40;101379.38;;;10.58;60.87
79791;BME280;69278;52.220;5.172;2023-04-15T08:31:07;101420.72;;;10.89;61.14
79791;BME280;69278;52.220;5.172;2023-04-15T08:33:34;101415.41;;;11.00;61.03
79791;BME280;69278;52.220;5.172;2023-04-15T08:36:01;101408.94;;;11.04;59.90
79791;BME280;69278;52.220;5.172;2023-04-15T08:38:28;101405.91;;;11.09;59.28
79791;BME280;69278;52.220;5.172;2023-04-15T08:40:57;101426.50;;;11.15;58.37
79791;BME280;69278;52.220;5.172;2023-04-15T08:43:33;101414.84;;;11.17;58.22
79791;BME280;69278;52.220;5.172;2023-04-15T08:46:00;101439.00;;;11.33;58.74
79791;BME280;69278;52.220;5.172;2023-04-15T08:48:28;101422.75;;;11.28;57.81
79791;BME280;69278;52.220;5.172;2023-04-15T08:50:55;101433.84;;;11.32;57.78
79791;BME280;69278;52.220;5.172;2023-04-15T08:53:23;101444.47;;;11.42;58.05
79791;BME280;69278;52.220;5.172;2023-04-15T08:55:51;101453.56;;;11.49;56.49
79791;BME280;69278;52.220;5.172;2023-04-15T08:58:19;101452.06;;;11.56;56.11
79791;BME280;69278;52.220;5.172;2023-04-15T09:00:45;101457.09;;;11.59;56.07
79791;BME280;69278;52.220;5.172;2023-04-15T09:03:14;101450.88;;;11.60;56.01
79791;BME280;69278;52.220;5.172;2023-04-15T09:05:42;101450.75;;;11.61;56.29
79791;BME280;69278;52.220;5.172;2023-04-15T09:08:09;101462.38;;;11.70;54.55
79791;BME280;69278;52.220;5.172;2023-04-15T09:10:35;101470.84;;;11.73;54.05
79791;BME280;69278;52.220;5.172;2023-04-15T09:13:02;101466.72;;;11.80;53.78
79791;BME280;69278;52.220;5.172;2023-04-15T09:15:31;101455.72;;;11.75;54.44
79791;BME280;69278;52.220;5.172;2023-04-15T09:17:58;101470.34;;;12.00;54.28
79791;BME280;69278;52.220;5.172;2023-04-15T09:20:24;101469.75;;;11.96;53.61
79791;BME280;69278;52.220;5.172;2023-04-15T09:22:51;101478.25;;;12.00;53.37
79791;BME280;69278;52.220;5.172;2023-04-15T09:27:48;101470.88;;;11.94;53.27
79791;BME280;69278;52.220;5.172;2023-04-15T09:30:15;101484.81;;;12.06;53.25
79791;BME280;69278;52.220;5.172;2023-04-15T09:32:59;101490.41;;;12.12;52.61
79791;BME280;69278;52.220;5.172;2023-04-15T09:35:27;101481.38;;;12.15;52.54
79791;BME280;69278;52.220;5.172;2023-04-15T09:38:08;101483.19;;;12.14;52.22
79791;BME280;69278;52.220;5.172;2023-04-15T09:40:39;101437.94;;;11.98;52.56
79791;BME280;69278;52.220;5.172;2023-04-15T09:43:08;101499.66;;;12.27;52.42
79791;BME280;69278;52.220;5.172;2023-04-15T09:45:35;101479.66;;;12.25;52.91
79791;BME280;69278;52.220;5.172;2023-04-15T09:48:17;101492.59;;;12.28;53.28
79791;BME280;69278;52.220;5.172;2023-04-15T09:50:43;101474.16;;;12.17;53.81
79791;BME280;69278;52.220;5.172;2023-04-15T09:53:10;101525.19;;;12.47;53.77
79791;BME280;69278;52.220;5.172;2023-04-15T09:55:48;101471.66;;;12.15;53.82
79791;BME280;69278;52.220;5.172;2023-04-15T09:58:28;101527.41;;;12.42;53.64
79791;BME280;69278;52.220;5.172;2023-04-15T10:00:56;101523.22;;;12.40;53.65
79791;BME280;69278;52.220;5.172;2023-04-15T10:03:28;101532.56;;;12.44;53.84
79791;BME280;69278;52.220;5.172;2023-04-15T10:05:57;101510.06;;;12.49;53.47
79791;BME280;69278;52.220;5.172;2023-04-15T10:08:26;101520.03;;;12.67;53.97
79791;BME280;69278;52.220;5.172;2023-04-15T10:10:53;101523.94;;;12.82;53.32
79791;BME280;69278;52.220;5.172;2023-04-15T10:13:25;101531.63;;;12.85;52.64
79791;BME280;69278;52.220;5.172;2023-04-15T10:15:57;101482.28;;;12.64;53.50
79791;BME280;69278;52.220;5.172;2023-04-15T10:18:26;101537.56;;;13.07;53.86
79791;BME280;69278;52.220;5.172;2023-04-15T10:20:53;101540.16;;;12.98;54.31
79791;BME280;69278;52.220;5.172;2023-04-15T10:23:21;101540.69;;;12.92;54.53
79791;BME280;69278;52.220;5.172;2023-04-15T10:25:50;101540.44;;;13.04;54.37
79791;BME280;69278;52.220;5.172;2023-04-15T10:28:18;101544.44;;;13.29;54.57
79791;BME280;69278;52.220;5.172;2023-04-15T10:30:45;101537.34;;;13.29;54.17
79791;BME280;69278;52.220;5.172;2023-04-15T10:33:13;101531.91;;;13.31;54.39
79791;BME280;69278;52.220;5.172;2023-04-15T10:35:42;101504.72;;;13.10;54.57
79791;BME280;69278;52.220;5.172;2023-04-15T10:38:32;101560.31;;;13.39;54.82
79791;BME280;69278;52.220;5.172;2023-04-15T10:41:34;101559.72;;;13.16;54.80
79791;BME280;69278;52.220;5.172;2023-04-15T10:44:03;101570.84;;;13.10;54.65
79791;BME280;69278;52.220;5.172;2023-04-15T10:46:41;101576.72;;;13.23;54.51
79791;BME280;69278;52.220;5.172;2023-04-15T10:49:12;101575.06;;;13.22;53.47
79791;BME280;69278;52.220;5.172;2023-04-15T10:51:41;101566.13;;;13.23;53.94
79791;BME280;69278;52.220;5.172;2023-04-15T10:57:07;101541.63;;;12.81;54.44
79791;BME280;69278;52.220;5.172;2023-04-15T11:05:14;101529.81;;;12.55;55.85
79791;BME280;69278;52.220;5.172;2023-04-15T11:07:54;101591.94;;;13.00;55.88
79791;BME280;69278;52.220;5.172;2023-04-15T11:12:52;101550.94;;;12.76;56.49
79791;BME280;69278;52.220;5.172;2023-04-15T11:18:10;101585.91;;;13.19;56.27
79791;BME280;69278;52.220;5.172;2023-04-15T11:20:39;101602.06;;;13.25;55.74
79791;BME280;69278;52.220;5.172;2023-04-15T11:23:07;101595.53;;;13.20;55.57
79791;BME280;69278;52.220;5.172;2023-04-15T11:25:40;101580.06;;;13.35;55.30
79791;BME280;69278;52.220;5.172;2023-04-15T11:28:08;101599.03;;;13.49;54.27
79791;BME280;69278;52.220;5.172;2023-04-15T11:30:36;101592.22;;;13.47;53.18
79791;BME280;69278;52.220;5.172;2023-04-15T11:33:04;101583.03;;;13.41;52.55
79791;BME280;69278;52.220;5.172;2023-04-15T11:35:31;101608.25;;;13.55;52.33
79791;BME280;69278;52.220;5.172;2023-04-15T11:38:02;101608.25;;;13.64;52.22
79791;BME280;69278;52.220;5.172;2023-04-15T11:40:29;101617.22;;;13.82;52.77
79791;BME280;69278;52.220;5.172;2023-04-15T11:43:07;101599.91;;;13.69;52.34
79791;BME280;69278;52.220;5.172;2023-04-15T11:45:35;101628.03;;;13.51;52.77
79791;BME280;69278;52.220;5.172;2023-04-15T11:48:09;101615.47;;;13.43;53.11
79791;BME280;69278;52.220;5.172;2023-04-15T11:50:37;101600.41;;;13.34;52.10
79791;BME280;69278;52.220;5.172;2023-04-15T11:53:08;101636.50;;;13.54;51.94
79791;BME280;69278;52.220;5.172;2023-04-15T11:55:48;101600.28;;;13.45;51.78
79791;BME280;69278;52.220;5.172;2023-04-15T11:58:18;101643.06;;;13.50;51.93
79791;BME280;69278;52.220;5.172;2023-04-15T12:00:54;101647.63;;;13.39;52.09
79791;BME280;69278;52.220;5.172;2023-04-15T12:03:22;101652.97;;;13.58;52.20
79791;BME280;69278;52.220;5.172;2023-04-15T12:06:11;101645.91;;;13.68;51.68
79791;BME280;69278;52.220;5.172;2023-04-15T12:09:02;101660.34;;;13.64;51.62
79791;BME280;69278;52.220;5.172;2023-04-15T12:16:50;101639.63;;;13.69;52.20
79791;BME280;69278;52.220;5.172;2023-04-15T12:19:27;101653.59;;;14.00;52.49
79791;BME280;69278;52.220;5.172;2023-04-15T12:22:02;101649.97;;;14.01;51.60
79791;BME280;69278;52.220;5.172;2023-04-15T12:24:33;101627.25;;;14.08;51.36
79791;BME280;69278;52.220;5.172;2023-04-15T12:27:09;101662.25;;;14.40;51.48
79791;BME280;69278;52.220;5.172;2023-04-15T12:29:37;101646.50;;;14.29;50.06
79791;BME280;69278;52.220;5.172;2023-04-15T12:32:09;101663.78;;;14.42;50.45
79791;BME280;69278;52.220;5.172;2023-04-15T12:34:41;101645.66;;;14.57;50.17
79791;BME280;69278;52.220;5.172;2023-04-15T12:37:09;101622.94;;;14.35;50.14
79791;BME280;69278;52.220;5.172;2023-04-15T12:39:38;101674.25;;;14.44;51.02
79791;BME280;69278;52.220;5.172;2023-04-15T12:42:05;101678.00;;;14.60;50.77
79791;BME280;69278;52.220;5.172;2023-04-15T12:44:32;101685.00;;;14.52;50.23
79791;BME280;69278;52.220;5.172;2023-04-15T12:46:59;101682.72;;;14.76;50.11
79791;BME280;69278;52.220;5.172;2023-04-15T12:49:26;101701.34;;;15.13;49.61
79791;BME280;69278;52.220;5.172;2023-04-15T12:51:55;101636.91;;;14.93;49.93
79791;BME280;69278;52.220;5.172;2023-04-15T12:54:22;101661.44;;;14.95;50.40
79791;BME280;69278;52.220;5.172;2023-04-15T12:56:49;101693.31;;;14.86;50.37
79791;BME280;69278;52.220;5.172;2023-04-15T12:59:16;101697.66;;;14.77;49.25
79791;BME280;69278;52.220;5.172;2023-04-15T13:01:44;101695.72;;;14.60;50.59
79791;BME280;69278;52.220;5.172;2023-04-15T13:04:10;101689.16;;;14.26;51.42
79791;BME280;69278;52.220;5.172;2023-04-15T13:06:37;101713.28;;;14.23;51.78
79791;BME280;69278;52.220;5.172;2023-04-15T13:09:04;101724.44;;;14.17;51.74
79791;BME280;69278;52.220;5.172;2023-04-15T13:11:32;101724.25;;;13.99;52.36
79791;BME280;69278;52.220;5.172;2023-04-15T13:14:07;101723.16;;;14.11;51.87
79791;BME280;69278;52.220;5.172;2023-04-15T13:16:34;101712.00;;;14.17;51.88
79791;BME280;69278;52.220;5.172;2023-04-15T13:19:02;101711.78;;;14.39;50.82
79791;BME280;69278;52.220;5.172;2023-04-15T13:21:29;101721.22;;;14.13;51.23